Time;durP1;ratioP1;P1;durP2;ratioP2;P2;SDS_P1;SDS_P2;PMS_P1;PMS_P2;Temp;Humidity;BMP_temperature;BMP_pressure;BME280_temperature;BME280_humidity;BME280_pressure;Samples;Min_cycle;Max_cycle;Signal;HPM_P1;HPM_P2
2022/05/26 00:02:53;;;;;;;2.87;2.27;;;;;;;;;;10471165;28;20060;-76
2022/05/26 00:07:53;;;;;;;2.90;2.60;;;;;;;;;;10433523;28;20044;-76
2022/05/26 00:12:54;;;;;;;2.53;2.25;;;;;;;;;;10461751;28;20299;-75
2022/05/26 00:17:54;;;;;;;2.25;2.05;;;;;;;;;;10454287;28;20056;-76
2022/05/26 00:22:55;;;;;;;2.90;2.00;;;;;;;;;;10440051;28;20525;-76
2022/05/26 00:27:56;;;;;;;3.15;1.88;;;;;;;;;;10431832;28;20044;-77
2022/05/26 00:32:56;;;;;;;1.70;1.58;;;;;;;;;;10431545;28;20068;-75
2022/05/26 00:37:57;;;;;;;1.80;1.70;;;;;;;;;;10486850;28;20063;-75
2022/05/26 00:42:57;;;;;;;2.08;1.70;;;;;;;;;;10452155;28;20044;-76
2022/05/26 00:48:09;;;;;;;2.35;1.83;;;;;;;;;;10470017;28;20040;-75
2022/05/26 00:53:15;;;;;;;2.45;2.03;;;;;;;;;;10442615;28;20051;-75
2022/05/26 00:58:28;;;;;;;2.92;2.15;;;;;;;;;;10447734;28;20040;-74
2022/05/26 01:03:34;;;;;;;4.45;2.58;;;;;;;;;;10467336;28;20036;-74
2022/05/26 01:08:37;;;;;;;2.10;1.73;;;;;;;;;;10459114;28;20052;-74
2022/05/26 01:13:42;;;;;;;1.83;1.65;;;;;;;;;;10472897;28;20049;-75
2022/05/26 01:18:45;;;;;;;2.63;1.70;;;;;;;;;;10451204;28;20048;-76
2022/05/26 01:23:52;;;;;;;2.63;1.73;;;;;;;;;;10475068;28;20063;-76
2022/05/26 01:29:01;;;;;;;1.98;1.75;;;;;;;;;;10481713;28;20183;-77
2022/05/26 01:34:10;;;;;;;2.03;1.60;;;;;;;;;;10461969;28;20056;-76
2022/05/26 01:39:40;;;;;;;2.50;1.75;;;;;;;;;;10478167;28;20086;-76
2022/05/26 01:44:46;;;;;;;1.65;1.55;;;;;;;;;;10495599;28;20032;-77
2022/05/26 01:49:50;;;;;;;2.05;1.85;;;;;;;;;;10447670;28;20059;-76
2022/05/26 01:55:17;;;;;;;2.65;1.58;;;;;;;;;;10445774;28;20135;-77
2022/05/26 02:00:18;;;;;;;2.53;1.70;;;;;;;;;;10456935;28;20058;-77
2022/05/26 02:05:29;;;;;;;1.98;1.70;;;;;;;;;;10446648;28;20036;-76
2022/05/26 02:10:34;;;;;;;1.92;1.70;;;;;;;;;;10465761;28;20479;-75
2022/05/26 02:15:40;;;;;;;2.10;1.60;;;;;;;;;;10458448;28;20048;-74
2022/05/26 02:20:45;;;;;;;2.50;1.95;;;;;;;;;;10475495;28;20083;-77
2022/05/26 02:25:46;;;;;;;2.55;1.60;;;;;;;;;;10452868;28;20029;-75
2022/05/26 02:30:47;;;;;;;2.28;1.90;;;;;;;;;;10483862;28;20051;-74
2022/05/26 02:35:50;;;;;;;3.05;1.70;;;;;;;;;;10473005;28;20484;-75
2022/05/26 02:40:54;;;;;;;2.20;1.58;;;;;;;;;;10438642;28;20048;-76
2022/05/26 02:46:06;;;;;;;2.72;1.70;;;;;;;;;;10430022;28;20041;-76
2022/05/26 02:51:14;;;;;;;3.03;1.73;;;;;;;;;;10465056;28;20049;-76
2022/05/26 02:56:30;;;;;;;2.83;1.80;;;;;;;;;;10486249;28;20048;-76
2022/05/26 03:01:49;;;;;;;2.15;1.60;;;;;;;;;;10465662;28;20055;-76
2022/05/26 03:06:52;;;;;;;2.35;1.77;;;;;;;;;;10447516;28;20207;-74
2022/05/26 03:11:55;;;;;;;3.92;1.77;;;;;;;;;;10458525;28;20111;-76
2022/05/26 03:16:56;;;;;;;2.95;2.20;;;;;;;;;;10447149;28;20092;-76
2022/05/26 03:21:56;;;;;;;1.60;1.50;;;;;;;;;;10468284;28;20757;-76
2022/05/26 03:26:57;;;;;;;3.78;1.98;;;;;;;;;;10419351;28;20272;-77
2022/05/26 03:31:57;;;;;;;1.83;1.60;;;;;;;;;;10435655;28;20041;-75
2022/05/26 03:42:17;;;;;;;2.53;2.20;;;;;;;;;;10481846;28;20049;-76
2022/05/26 03:47:17;;;;;;;2.63;1.80;;;;;;;;;;10491955;28;20108;-77
2022/05/26 03:52:17;;;;;;;3.95;2.42;;;;;;;;;;10475785;28;20107;-74
2022/05/26 03:57:22;;;;;;;4.40;2.00;;;;;;;;;;10481066;28;20050;-75
2022/05/26 04:02:24;;;;;;;3.85;2.88;;;;;;;;;;10477046;28;20044;-78
2022/05/26 04:07:25;;;;;;;3.85;2.40;;;;;;;;;;10479064;28;20036;-77
2022/05/26 04:12:25;;;;;;;4.23;2.00;;;;;;;;;;10475229;28;20150;-75
2022/05/26 04:17:25;;;;;;;1.83;1.73;;;;;;;;;;10472410;28;20124;-76
2022/05/26 04:22:26;;;;;;;2.67;1.90;;;;;;;;;;10470002;28;20049;-74
2022/05/26 04:27:30;;;;;;;1.60;1.40;;;;;;;;;;10467196;28;20135;-76
2022/05/26 04:32:31;;;;;;;2.30;1.95;;;;;;;;;;10467442;28;20056;-75
2022/05/26 04:37:31;;;;;;;3.63;1.73;;;;;;;;;;10463314;28;20342;-75
2022/05/26 04:42:31;;;;;;;1.15;1.00;;;;;;;;;;10475028;28;20243;-76
2022/05/26 04:47:32;;;;;;;3.37;1.80;;;;;;;;;;10499592;28;20089;-76
2022/05/26 04:52:33;;;;;;;2.08;1.25;;;;;;;;;;10446686;28;20447;-76
2022/05/26 04:57:33;;;;;;;1.45;1.20;;;;;;;;;;10461393;28;20041;-72
2022/05/26 05:02:33;;;;;;;2.10;1.10;;;;;;;;;;10471085;28;20164;-72
2022/05/26 05:07:34;;;;;;;1.17;0.98;;;;;;;;;;10455929;28;20347;-71
2022/05/26 05:12:35;;;;;;;1.73;0.97;;;;;;;;;;10446914;28;20056;-73
2022/05/26 05:17:35;;;;;;;3.13;1.98;;;;;;;;;;10447719;28;20150;-71
2022/05/26 05:22:40;;;;;;;3.03;2.03;;;;;;;;;;10452223;28;20138;-72
2022/05/26 05:27:47;;;;;;;6.93;3.97;;;;;;;;;;10451765;28;20101;-71
2022/05/26 05:33:03;;;;;;;1.50;1.20;;;;;;;;;;10443799;28;20250;-72
2022/05/26 05:38:04;;;;;;;6.20;3.75;;;;;;;;;;10460643;28;20417;-74
2022/05/26 05:43:05;;;;;;;1.35;1.25;;;;;;;;;;10474164;28;20138;-72
2022/05/26 05:48:06;;;;;;;3.15;1.83;;;;;;;;;;10456415;28;20045;-73
2022/05/26 05:53:09;;;;;;;1.10;0.90;;;;;;;;;;10465832;28;20488;-73
2022/05/26 05:58:11;;;;;;;2.97;1.17;;;;;;;;;;10465008;28;20128;-73
2022/05/26 06:03:12;;;;;;;2.03;1.47;;;;;;;;;;10443602;28;20045;-72
2022/05/26 06:08:12;;;;;;;3.60;1.38;;;;;;;;;;10477888;28;20056;-70
2022/05/26 06:13:13;;;;;;;4.80;2.70;;;;;;;;;;10485271;28;20063;-72
2022/05/26 06:18:16;;;;;;;3.50;1.90;;;;;;;;;;10448720;28;20103;-79
2022/05/26 06:23:17;;;;;;;4.38;2.05;;;;;;;;;;10471284;28;20375;-74
2022/05/26 06:38:55;;;;;;;1.98;1.00;;;;;;;;;;10479682;28;20049;-74
2022/05/26 06:43:55;;;;;;;2.38;1.50;;;;;;;;;;10481513;28;20059;-73
2022/05/26 06:48:56;;;;;;;11.63;8.00;;;;;;;;;;10476623;28;20100;-74
2022/05/26 06:53:56;;;;;;;1.20;0.97;;;;;;;;;;10437767;28;20063;-71
2022/05/26 06:58:56;;;;;;;1.63;0.70;;;;;;;;;;10482426;28;20101;-71
2022/05/26 07:03:57;;;;;;;1.38;0.82;;;;;;;;;;10468890;28;20040;-74
2022/05/26 07:08:57;;;;;;;4.60;0.95;;;;;;;;;;10472233;28;20496;-77
2022/05/26 07:13:58;;;;;;;1.25;0.80;;;;;;;;;;10454380;28;20036;-71
2022/05/26 07:18:58;;;;;;;1.20;0.80;;;;;;;;;;10471395;28;20060;-71
2022/05/26 07:23:59;;;;;;;0.80;0.70;;;;;;;;;;10469358;28;20484;-72
2022/05/26 07:28:59;;;;;;;1.90;0.82;;;;;;;;;;10477415;28;20123;-70
2022/05/26 07:34:00;;;;;;;1.40;0.80;;;;;;;;;;10451117;28;20033;-71
2022/05/26 07:44:20;;;;;;;3.22;2.55;;;;;;;;;;10425885;28;20837;-74
2022/05/26 07:49:20;;;;;;;2.72;1.20;;;;;;;;;;10481439;28;20112;-73
2022/05/26 07:54:21;;;;;;;1.27;0.80;;;;;;;;;;10467948;28;20037;-70
2022/05/26 07:59:22;;;;;;;1.97;0.80;;;;;;;;;;10477132;28;20059;-69
2022/05/26 08:04:22;;;;;;;1.55;0.80;;;;;;;;;;10449866;28;20040;-71
2022/05/26 08:09:22;;;;;;;2.25;1.00;;;;;;;;;;10460501;28;20051;-72
2022/05/26 08:14:23;;;;;;;2.42;1.20;;;;;;;;;;10468848;28;20040;-71
2022/05/26 08:19:23;;;;;;;1.53;1.20;;;;;;;;;;10447578;28;20053;-72
2022/05/26 08:24:24;;;;;;;1.97;1.00;;;;;;;;;;10450805;28;20044;-73
2022/05/26 08:29:24;;;;;;;1.27;0.80;;;;;;;;;;10476231;28;20049;-75
2022/05/26 08:34:25;;;;;;;1.30;0.90;;;;;;;;;;10473286;28;20045;-73
2022/05/26 08:39:25;;;;;;;2.83;0.97;;;;;;;;;;10482980;28;20145;-74
2022/05/26 08:44:31;;;;;;;1.10;0.77;;;;;;;;;;10479277;28;20041;-73
2022/05/26 08:49:36;;;;;;;2.35;2.15;;;;;;;;;;10450764;28;20059;-74
2022/05/26 08:54:49;;;;;;;2.25;1.10;;;;;;;;;;10477072;28;20082;-73
2022/05/26 08:59:49;;;;;;;1.43;0.80;;;;;;;;;;10482017;28;20113;-73
2022/05/26 09:04:50;;;;;;;2.13;1.00;;;;;;;;;;10468355;28;21754;-73
2022/05/26 09:15:15;;;;;;;2.08;1.05;;;;;;;;;;10482869;28;20135;-73
2022/05/26 09:20:27;;;;;;;1.17;1.08;;;;;;;;;;10473870;28;20974;-70
2022/05/26 09:25:44;;;;;;;2.03;0.70;;;;;;;;;;10488581;28;20102;-74
2022/05/26 09:30:44;;;;;;;1.80;0.90;;;;;;;;;;10447529;28;20045;-73
2022/05/26 09:35:45;;;;;;;1.95;0.88;;;;;;;;;;10416214;28;20037;-72
2022/05/26 09:40:46;;;;;;;1.40;1.00;;;;;;;;;;10448552;28;20053;-73
2022/05/26 09:45:51;;;;;;;1.38;0.75;;;;;;;;;;10477777;28;20040;-72
2022/05/26 09:50:53;;;;;;;1.13;0.90;;;;;;;;;;10471202;28;20053;-75
2022/05/26 09:55:55;;;;;;;3.63;1.10;;;;;;;;;;10469253;28;20044;-73
2022/05/26 10:00:57;;;;;;;1.57;1.10;;;;;;;;;;10458191;28;20054;-73
2022/05/26 10:06:36;;;;;;;1.10;0.82;;;;;;;;;;10472651;28;20045;-74
2022/05/26 10:11:54;;;;;;;1.67;1.35;;;;;;;;;;10258931;28;20078;-74
2022/05/26 10:16:59;;;;;;;2.55;1.15;;;;;;;;;;10439982;28;20045;-73
2022/05/26 10:22:15;;;;;;;2.25;1.15;;;;;;;;;;10466746;28;20095;-73
2022/05/26 10:27:25;;;;;;;0.70;0.70;;;;;;;;;;10468109;28;20056;-73
2022/05/26 10:32:37;;;;;;;1.55;0.75;;;;;;;;;;10452284;28;20035;-72
2022/05/26 10:37:50;;;;;;;1.33;0.90;;;;;;;;;;10427711;28;20351;-74
2022/05/26 10:42:56;;;;;;;1.25;0.70;;;;;;;;;;10447453;28;20056;-73
2022/05/26 10:48:11;;;;;;;1.13;1.00;;;;;;;;;;10461247;28;20064;-73
2022/05/26 10:53:30;;;;;;;1.65;0.85;;;;;;;;;;10440727;28;20056;-73
2022/05/26 10:58:32;;;;;;;3.35;2.05;;;;;;;;;;10458268;28;20494;-73
2022/05/26 11:03:45;;;;;;;2.72;1.08;;;;;;;;;;10430710;28;20036;-72
2022/05/26 11:08:54;;;;;;;2.23;1.10;;;;;;;;;;10470669;28;20060;-73
2022/05/26 11:14:03;;;;;;;1.65;0.95;;;;;;;;;;10467585;28;20045;-72
2022/05/26 11:19:13;;;;;;;2.45;1.20;;;;;;;;;;10441807;28;20060;-73
2022/05/26 11:24:13;;;;;;;1.58;1.40;;;;;;;;;;10463506;28;20474;-72
2022/05/26 11:29:14;;;;;;;2.63;1.30;;;;;;;;;;10459243;28;20049;-73
2022/05/26 11:39:39;;;;;;;1.17;1.00;;;;;;;;;;10451626;28;20048;-75
2022/05/26 11:44:41;;;;;;;10.73;8.73;;;;;;;;;;10469026;28;20049;-74
2022/05/26 11:49:45;;;;;;;1.30;1.20;;;;;;;;;;10458442;28;20484;-72
2022/05/26 11:55:06;;;;;;;1.58;1.08;;;;;;;;;;10472316;28;20040;-71
2022/05/26 12:00:18;;;;;;;3.80;1.08;;;;;;;;;;10478937;28;20475;-71
2022/05/26 12:05:30;;;;;;;1.47;0.90;;;;;;;;;;10437645;28;20397;-71
2022/05/26 12:10:49;;;;;;;5.67;4.00;;;;;;;;;;10437798;28;20070;-73
2022/05/26 12:16:06;;;;;;;3.03;2.03;;;;;;;;;;10480733;28;20060;-72
2022/05/26 12:21:11;;;;;;;4.05;2.63;;;;;;;;;;10477897;28;20061;-73
2022/05/26 12:26:34;;;;;;;1.75;1.20;;;;;;;;;;10484124;28;20119;-76
2022/05/26 12:31:35;;;;;;;2.75;2.10;;;;;;;;;;10471550;28;20049;-73
2022/05/26 12:36:46;;;;;;;2.17;1.97;;;;;;;;;;10455455;28;20064;-73
2022/05/26 12:41:58;;;;;;;2.08;1.20;;;;;;;;;;10483301;28;20053;-73
2022/05/26 12:47:01;;;;;;;2.38;1.40;;;;;;;;;;10472112;28;20524;-73
2022/05/26 12:52:12;;;;;;;3.47;1.60;;;;;;;;;;10461662;28;20056;-73
2022/05/26 12:57:14;;;;;;;2.63;1.38;;;;;;;;;;10442993;28;20098;-74
2022/05/26 13:02:27;;;;;;;1.02;0.90;;;;;;;;;;10460349;28;20116;-71
2022/05/26 13:07:28;;;;;;;2.47;1.58;;;;;;;;;;10468283;28;20093;-73
2022/05/26 13:12:28;;;;;;;2.03;1.40;;;;;;;;;;10469256;28;20044;-72
2022/05/26 13:17:29;;;;;;;2.70;2.10;;;;;;;;;;10461329;28;20419;-73
2022/05/26 13:22:33;;;;;;;2.03;1.10;;;;;;;;;;10468402;28;20110;-72
2022/05/26 13:27:50;;;;;;;3.75;2.55;;;;;;;;;;10470732;28;20040;-72
2022/05/26 13:33:11;;;;;;;1.20;1.05;;;;;;;;;;10472379;28;20037;-72
2022/05/26 13:38:37;;;;;;;2.47;1.10;;;;;;;;;;10460992;28;20041;-72
2022/05/26 13:43:41;;;;;;;2.97;2.25;;;;;;;;;;10467520;28;20155;-73
2022/05/26 13:48:45;;;;;;;2.67;1.30;;;;;;;;;;10451600;28;20174;-73
2022/05/26 13:53:49;;;;;;;2.35;1.08;;;;;;;;;;10457710;28;20056;-74
2022/05/26 13:58:51;;;;;;;5.13;2.85;;;;;;;;;;10467198;28;20669;-72
2022/05/26 14:03:58;;;;;;;3.00;2.10;;;;;;;;;;10460864;28;20056;-71
2022/05/26 14:09:00;;;;;;;1.15;1.00;;;;;;;;;;10460542;28;20053;-72
2022/05/26 14:14:19;;;;;;;1.20;1.10;;;;;;;;;;10457461;28;20484;-73
2022/05/26 14:19:23;;;;;;;3.60;2.03;;;;;;;;;;10420313;28;20675;-72
2022/05/26 14:24:32;;;;;;;2.05;1.45;;;;;;;;;;10457032;28;20060;-71
2022/05/26 14:29:34;;;;;;;2.33;1.45;;;;;;;;;;10457619;28;20041;-72
2022/05/26 14:34:36;;;;;;;3.70;2.42;;;;;;;;;;10467880;28;20068;-72
2022/05/26 14:39:36;;;;;;;2.30;1.73;;;;;;;;;;10462963;28;20056;-72
2022/05/26 14:44:37;;;;;;;4.90;2.88;;;;;;;;;;10475362;28;20032;-71
2022/05/26 14:49:37;;;;;;;5.43;3.93;;;;;;;;;;10474221;28;20051;-73
2022/05/26 14:59:57;;;;;;;3.03;1.80;;;;;;;;;;10461356;28;20134;-72
2022/05/26 15:04:58;;;;;;;1.93;1.77;;;;;;;;;;10435201;28;20112;-72
2022/05/26 15:09:58;;;;;;;1.77;1.50;;;;;;;;;;10471904;28;20341;-73
2022/05/26 15:14:58;;;;;;;2.10;1.50;;;;;;;;;;10455546;28;20693;-71
2022/05/26 15:20:00;;;;;;;2.23;1.63;;;;;;;;;;10475105;28;20048;-73
2022/05/26 15:25:02;;;;;;;1.77;1.67;;;;;;;;;;10447308;28;20067;-72
2022/05/26 15:30:03;;;;;;;5.57;3.13;;;;;;;;;;10436232;28;20687;-72
2022/05/26 15:35:04;;;;;;;4.35;2.90;;;;;;;;;;10467676;28;20064;-72
2022/05/26 15:40:05;;;;;;;2.73;2.33;;;;;;;;;;10467561;28;20049;-74
2022/05/26 15:45:07;;;;;;;2.20;1.90;;;;;;;;;;10477688;28;20056;-71
2022/05/26 15:50:11;;;;;;;2.30;1.77;;;;;;;;;;10481756;28;20037;-72
2022/05/26 15:55:13;;;;;;;2.05;1.70;;;;;;;;;;10465456;28;20041;-72
2022/05/26 16:00:15;;;;;;;1.40;1.30;;;;;;;;;;10456304;28;20059;-70
2022/05/26 16:05:16;;;;;;;;;;;;;;;;;;10452390;28;20498;-72
2022/05/26 16:10:20;;;;;;;1.20;1.10;;;;;;;;;;10471571;28;19978;-71
2022/05/26 16:15:23;;;;;;;2.53;1.50;;;;;;;;;;10454107;28;20040;-74
2022/05/26 16:20:23;;;;;;;3.45;1.60;;;;;;;;;;10478038;28;23214;-70
2022/05/26 16:25:24;;;;;;;2.83;1.60;;;;;;;;;;10469102;28;20041;-72
2022/05/26 16:30:25;;;;;;;2.75;1.50;;;;;;;;;;10446872;28;20041;-72
2022/05/26 16:40:48;;;;;;;1.70;1.40;;;;;;;;;;10477614;28;20085;-68
2022/05/26 16:45:48;;;;;;;3.45;1.80;;;;;;;;;;10470706;28;20056;-70
2022/05/26 16:50:49;;;;;;;2.60;1.95;;;;;;;;;;10469756;28;20048;-69
2022/05/26 16:55:49;;;;;;;2.07;1.40;;;;;;;;;;10471749;28;20475;-70
2022/05/26 17:00:49;;;;;;;3.03;1.63;;;;;;;;;;10474681;28;20287;-70
2022/05/26 17:05:50;;;;;;;1.30;1.17;;;;;;;;;;10454879;28;20448;-69
2022/05/26 17:10:51;;;;;;;1.60;1.37;;;;;;;;;;10455076;28;20036;-71
2022/05/26 17:21:13;;;;;;;2.08;1.50;;;;;;;;;;10462418;28;20068;-70
2022/05/26 17:26:15;;;;;;;2.63;1.80;;;;;;;;;;10459512;28;20086;-69
2022/05/26 17:31:15;;;;;;;2.97;1.85;;;;;;;;;;10457727;28;20044;-70
2022/05/26 17:36:17;;;;;;;2.08;1.40;;;;;;;;;;10464268;28;20476;-71
2022/05/26 17:41:37;;;;;;;2.92;2.10;;;;;;;;;;10474900;28;20175;-72
2022/05/26 17:46:38;;;;;;;1.67;1.40;;;;;;;;;;10470817;28;20036;-72
2022/05/26 17:51:39;;;;;;;3.80;1.50;;;;;;;;;;10467772;28;20052;-70
2022/05/26 17:56:39;;;;;;;1.67;1.40;;;;;;;;;;10472887;28;20049;-72
2022/05/26 18:01:40;;;;;;;1.90;1.60;;;;;;;;;;10456679;28;20527;-70
2022/05/26 18:06:41;;;;;;;1.80;1.40;;;;;;;;;;10460505;28;20052;-71
2022/05/26 18:11:42;;;;;;;1.73;1.63;;;;;;;;;;10448720;28;20044;-71
2022/05/26 18:16:43;;;;;;;1.80;1.40;;;;;;;;;;10469668;28;20068;-71
2022/05/26 18:21:44;;;;;;;1.90;1.30;;;;;;;;;;10460874;28;20240;-71
2022/05/26 18:26:45;;;;;;;1.88;1.50;;;;;;;;;;10470512;28;20056;-70
2022/05/26 18:31:47;;;;;;;2.03;1.27;;;;;;;;;;10456328;28;20067;-71
2022/05/26 18:36:48;;;;;;;2.08;1.17;;;;;;;;;;10455648;28;20037;-73
2022/05/26 18:41:48;;;;;;;2.40;1.63;;;;;;;;;;10471888;28;20049;-71
2022/05/26 18:46:49;;;;;;;2.47;1.47;;;;;;;;;;10459799;28;20102;-71
2022/05/26 18:51:49;;;;;;;5.50;3.47;;;;;;;;;;10454285;28;20074;-72
2022/05/26 18:56:50;;;;;;;2.72;2.08;;;;;;;;;;10443093;28;20392;-72
2022/05/26 19:01:51;;;;;;;3.10;2.63;;;;;;;;;;10478068;28;20078;-71
2022/05/26 19:06:52;;;;;;;3.20;1.90;;;;;;;;;;10465984;28;20490;-72
2022/05/26 19:11:54;;;;;;;4.93;3.00;;;;;;;;;;10459488;28;20040;-71
2022/05/26 19:16:59;;;;;;;3.47;2.20;;;;;;;;;;10431220;28;20048;-72
2022/05/26 19:22:00;;;;;;;2.92;1.70;;;;;;;;;;10452900;28;20057;-70
2022/05/26 19:27:01;;;;;;;2.50;2.08;;;;;;;;;;10469551;28;20045;-73
2022/05/26 19:32:01;;;;;;;1.92;1.70;;;;;;;;;;10475489;28;20044;-79
2022/05/26 19:37:02;;;;;;;3.53;2.08;;;;;;;;;;10479871;28;20045;-80
2022/05/26 19:42:03;;;;;;;5.05;3.40;;;;;;;;;;10468800;28;20506;-76
2022/05/26 19:47:07;;;;;;;5.03;3.00;;;;;;;;;;10464614;28;20056;-77
2022/05/26 19:52:07;;;;;;;2.67;2.38;;;;;;;;;;10471717;28;20131;-78
2022/05/26 19:57:08;;;;;;;3.03;2.10;;;;;;;;;;10469792;28;20087;-77
2022/05/26 20:02:08;;;;;;;2.90;2.60;;;;;;;;;;10481085;28;20052;-80
2022/05/26 20:07:08;;;;;;;4.93;2.92;;;;;;;;;;10470566;28;20047;-77
2022/05/26 20:12:09;;;;;;;3.57;2.70;;;;;;;;;;10493447;28;20045;-77
2022/05/26 20:17:10;;;;;;;3.55;2.50;;;;;;;;;;10445077;28;20049;-78
2022/05/26 20:22:10;;;;;;;4.03;2.17;;;;;;;;;;10442386;28;20044;-77
2022/05/26 20:27:14;;;;;;;3.93;2.33;;;;;;;;;;10468603;28;20119;-78
2022/05/26 20:32:15;;;;;;;2.55;2.35;;;;;;;;;;10505723;28;20038;-78
2022/05/26 20:37:20;;;;;;;2.30;2.10;;;;;;;;;;10502932;28;20028;-77
2022/05/26 20:42:21;;;;;;;2.38;2.17;;;;;;;;;;10451095;28;20049;-76
2022/05/26 20:47:22;;;;;;;2.33;2.10;;;;;;;;;;10463718;28;20044;-77
2022/05/26 20:52:23;;;;;;;2.40;2.17;;;;;;;;;;10472813;28;20036;-77
2022/05/26 20:57:27;;;;;;;2.92;2.33;;;;;;;;;;10431914;28;20261;-78
2022/05/26 21:02:28;;;;;;;3.13;2.45;;;;;;;;;;10465518;28;20102;-76
2022/05/26 21:07:30;;;;;;;2.67;2.25;;;;;;;;;;10431321;28;20401;-76
2022/05/26 21:12:30;;;;;;;3.05;2.42;;;;;;;;;;10438506;28;20067;-78
2022/05/26 21:17:30;;;;;;;3.33;2.40;;;;;;;;;;10459100;28;20140;-78
2022/05/26 21:22:32;;;;;;;4.13;2.10;;;;;;;;;;10427523;28;20127;-79
2022/05/26 21:27:33;;;;;;;2.67;2.42;;;;;;;;;;10477725;28;20263;-78
2022/05/26 21:32:34;;;;;;;4.18;2.80;;;;;;;;;;10467895;28;20056;-77
2022/05/26 21:37:35;;;;;;;5.57;2.95;;;;;;;;;;10472715;28;21024;-79
2022/05/26 21:42:35;;;;;;;3.65;2.50;;;;;;;;;;10440192;28;20059;-79
2022/05/26 21:47:36;;;;;;;3.55;2.60;;;;;;;;;;10428240;28;20106;-76
2022/05/26 21:52:36;;;;;;;3.50;2.00;;;;;;;;;;10471783;28;20070;-78
2022/05/26 21:57:36;;;;;;;3.77;2.67;;;;;;;;;;10428764;28;20045;-77
2022/05/26 22:02:38;;;;;;;2.83;2.37;;;;;;;;;;10448575;28;20646;-75
2022/05/26 22:12:58;;;;;;;4.18;2.40;;;;;;;;;;10431172;28;20547;-77
2022/05/26 22:17:58;;;;;;;2.50;2.30;;;;;;;;;;10463921;28;20063;-77
2022/05/26 22:23:01;;;;;;;3.37;2.57;;;;;;;;;;10433933;28;20052;-77
2022/05/26 22:28:02;;;;;;;2.75;2.40;;;;;;;;;;10432914;28;20067;-79
2022/05/26 22:33:04;;;;;;;2.50;2.30;;;;;;;;;;10460376;28;20047;-80
2022/05/26 22:38:04;;;;;;;3.77;2.30;;;;;;;;;;10422739;28;20048;-76
2022/05/26 22:43:05;;;;;;;3.03;2.53;;;;;;;;;;10454696;28;20057;-76
2022/05/26 22:48:06;;;;;;;3.40;2.58;;;;;;;;;;10464470;28;20059;-76
2022/05/26 22:53:07;;;;;;;3.97;2.80;;;;;;;;;;10473254;28;20473;-78
2022/05/26 22:58:09;;;;;;;3.83;2.58;;;;;;;;;;10452003;28;20159;-75
2022/05/26 23:03:09;;;;;;;4.07;3.10;;;;;;;;;;10446408;28;20527;-76
2022/05/26 23:08:09;;;;;;;6.30;2.93;;;;;;;;;;10459400;28;20036;-76
2022/05/26 23:13:10;;;;;;;4.67;2.93;;;;;;;;;;10464628;28;20378;-76
2022/05/26 23:18:11;;;;;;;3.15;2.40;;;;;;;;;;10472087;28;20091;-75
2022/05/26 23:23:11;;;;;;;3.50;2.80;;;;;;;;;;10447154;28;20136;-76
2022/05/26 23:28:12;;;;;;;4.00;2.85;;;;;;;;;;10473827;28;20286;-77
2022/05/26 23:33:12;;;;;;;4.43;2.97;;;;;;;;;;10463026;28;20128;-76
2022/05/26 23:38:12;;;;;;;2.80;2.47;;;;;;;;;;10448235;28;20056;-77
2022/05/26 23:43:23;;;;;;;2.87;2.40;;;;;;;;;;10468669;28;20404;-76
2022/05/26 23:48:24;;;;;;;3.05;2.75;;;;;;;;;;10445207;28;20375;-76
2022/05/26 23:53:25;;;;;;;5.72;2.80;;;;;;;;;;10464977;28;20045;-79
2022/05/26 23:58:26;;;;;;;5.30;3.03;;;;;;;;;;10462246;28;20373;-76
